createdAt,value
2023-02-19T00:01:48.797Z,26.30
2023-02-19T00:04:18.294Z,26.30
2023-02-19T00:06:46.413Z,26.30
2023-02-19T00:09:15.412Z,26.30
2023-02-19T00:11:42.804Z,26.30
2023-02-19T00:14:11.531Z,26.30
2023-02-19T00:16:39.747Z,26.30
2023-02-19T00:19:11.637Z,26.30
2023-02-19T00:21:38.310Z,26.30
2023-02-19T00:24:06.732Z,26.30
2023-02-19T00:26:34.061Z,26.30
2023-02-19T00:29:01.443Z,26.30
2023-02-19T00:31:33.596Z,26.30
2023-02-19T00:34:05.384Z,26.30
2023-02-19T00:36:35.746Z,26.20
2023-02-19T00:39:02.938Z,26.30
2023-02-19T00:41:30.477Z,26.30
2023-02-19T00:44:05.534Z,26.20
2023-02-19T00:46:37.864Z,26.30
2023-02-19T00:49:06.192Z,26.30
2023-02-19T00:51:36.141Z,26.30
2023-02-19T00:54:04.168Z,26.20
2023-02-19T00:56:30.894Z,26.20
2023-02-19T00:58:57.876Z,26.20
2023-02-19T01:01:24.521Z,26.20
2023-02-19T01:03:51.175Z,26.20
2023-02-19T01:06:19.441Z,26.20
2023-02-19T01:08:46.131Z,26.30
2023-02-19T01:11:13.413Z,26.20
2023-02-19T01:13:40.748Z,26.20
2023-02-19T01:16:19.279Z,26.20
2023-02-19T01:18:47.610Z,26.20
2023-02-19T01:21:17.408Z,26.20
2023-02-19T01:23:45.081Z,26.20
2023-02-19T01:26:14.913Z,26.20
2023-02-19T01:28:41.625Z,26.20
2023-02-19T01:31:13.392Z,26.20
2023-02-19T01:33:40.263Z,26.20
2023-02-19T01:36:07.563Z,26.20
2023-02-19T01:38:34.228Z,26.20
2023-02-19T01:41:05.880Z,26.20
2023-02-19T01:43:34.778Z,26.20
2023-02-19T01:46:02.418Z,26.20
2023-02-19T01:48:39.702Z,26.20
2023-02-19T01:51:11.135Z,26.20
2023-02-19T01:53:43.532Z,26.20
2023-02-19T01:56:11.467Z,26.20
2023-02-19T01:58:39.611Z,26.20
2023-02-19T02:01:08.515Z,26.20
2023-02-19T02:03:39.995Z,26.20
2023-02-19T02:06:19.013Z,26.20
2023-02-19T02:09:04.368Z,26.20
2023-02-19T02:11:31.137Z,26.20
2023-02-19T02:13:58.378Z,26.20
2023-02-19T02:16:25.008Z,26.20
2023-02-19T02:19:23.062Z,26.10
2023-02-19T02:22:12.688Z,26.10
2023-02-19T02:25:27.553Z,26.10
2023-02-19T02:28:06.802Z,26.20
2023-02-19T02:30:43.670Z,26.20
2023-02-19T02:33:35.466Z,26.10
2023-02-19T02:36:07.387Z,26.10
2023-02-19T02:38:38.754Z,26.20
2023-02-19T02:41:06.592Z,26.10
2023-02-19T02:43:33.354Z,26.20
2023-02-19T02:45:59.954Z,26.10
2023-02-19T02:48:45.019Z,26.10
2023-02-19T02:51:33.628Z,26.10
2023-02-19T02:54:38.338Z,26.10
2023-02-19T02:57:09.273Z,26.10
2023-02-19T02:59:39.938Z,26.20
2023-02-19T03:02:11.373Z,26.10
2023-02-19T03:05:24.239Z,26.10
2023-02-19T03:07:55.122Z,26.10
2023-02-19T03:10:33.931Z,26.10
2023-02-19T03:13:21.140Z,26.10
2023-02-19T03:16:24.406Z,26.10
2023-02-19T03:19:13.480Z,26.10
2023-02-19T03:21:43.186Z,26.10
2023-02-19T03:24:30.962Z,26.10
2023-02-19T03:27:04.374Z,26.10
2023-02-19T03:29:35.483Z,26.10
2023-02-19T03:32:08.636Z,26.10
2023-02-19T03:34:41.232Z,26.10
2023-02-19T03:37:24.451Z,26.10
2023-02-19T03:39:52.742Z,26.10
2023-02-19T03:42:49.351Z,26.10
2023-02-19T03:45:41.390Z,26.10
2023-02-19T03:48:25.200Z,26.10
2023-02-19T03:51:12.878Z,26.10
2023-02-19T03:53:52.820Z,26.10
2023-02-19T03:56:36.295Z,26.10
2023-02-19T03:59:13.258Z,26.10
2023-02-19T04:01:52.198Z,26.10
2023-02-19T04:04:28.265Z,26.10
2023-02-19T04:06:56.931Z,26.10
2023-02-19T04:09:27.234Z,26.10
2023-02-19T04:11:55.140Z,26.10
2023-02-19T04:14:29.137Z,26.10
2023-02-19T04:17:01.584Z,26.10
2023-02-19T04:19:30.719Z,26.10
2023-02-19T04:21:59.218Z,26.10
2023-02-19T04:24:33.122Z,26.10
2023-02-19T04:27:00.317Z,26.10
2023-02-19T04:29:26.957Z,26.10
2023-02-19T04:31:53.621Z,26.10
2023-02-19T04:34:20.313Z,26.10
2023-02-19T04:36:46.958Z,26.10
2023-02-19T04:39:13.597Z,26.10
2023-02-19T04:41:40.192Z,26.10
2023-02-19T04:44:06.749Z,26.10
2023-02-19T04:46:33.328Z,26.10
2023-02-19T04:48:59.877Z,26.10
2023-02-19T04:51:26.484Z,26.10
2023-02-19T04:53:53.184Z,26.00
2023-02-19T04:56:20.069Z,26.10
2023-02-19T04:58:46.629Z,26.10
2023-02-19T05:01:14.537Z,26.10
2023-02-19T05:03:41.417Z,26.00
2023-02-19T05:06:12.222Z,26.10
2023-02-19T05:08:38.949Z,26.10
2023-02-19T05:11:08.103Z,26.00
2023-02-19T05:13:36.172Z,26.00
2023-02-19T05:16:10.323Z,26.00
2023-02-19T05:18:37.102Z,26.00
2023-02-19T05:21:03.826Z,26.00
2023-02-19T05:23:30.412Z,26.10
2023-02-19T05:25:57.018Z,26.00
2023-02-19T05:28:28.694Z,26.00
2023-02-19T05:30:57.506Z,26.00
2023-02-19T05:33:25.843Z,26.00
2023-02-19T05:35:54.662Z,26.00
2023-02-19T05:38:22.724Z,26.00
2023-02-19T05:40:49.981Z,26.00
2023-02-19T05:43:17.087Z,26.00
2023-02-19T05:45:44.105Z,26.00
2023-02-19T05:48:11.510Z,26.00
2023-02-19T05:50:39.874Z,26.00
2023-02-19T05:53:06.766Z,26.00
2023-02-19T05:55:36.490Z,26.00
2023-02-19T05:58:03.717Z,26.00
2023-02-19T06:00:32.276Z,26.00
2023-02-19T06:02:58.931Z,26.00
2023-02-19T06:05:25.561Z,26.00
2023-02-19T06:07:52.158Z,26.00
2023-02-19T06:10:18.994Z,26.00
2023-02-19T06:12:45.794Z,26.00
2023-02-19T06:15:12.467Z,26.00
2023-02-19T06:17:39.425Z,26.00
2023-02-19T06:20:06.421Z,26.00
2023-02-19T06:22:32.999Z,26.00
2023-02-19T06:24:59.572Z,26.00
2023-02-19T06:27:26.234Z,26.00
2023-02-19T06:29:52.836Z,26.00
2023-02-19T06:32:19.504Z,26.00
2023-02-19T06:34:46.292Z,26.00
2023-02-19T06:37:13.119Z,26.00
2023-02-19T06:39:39.704Z,26.00
2023-02-19T06:42:06.285Z,26.00
2023-02-19T06:44:33.037Z,26.00
2023-02-19T06:46:59.685Z,26.00
2023-02-19T06:49:26.346Z,26.00
2023-02-19T06:51:52.915Z,26.00
2023-02-19T06:54:19.460Z,26.00
2023-02-19T06:56:47.142Z,26.00
2023-02-19T06:59:16.916Z,26.00
2023-02-19T07:01:44.702Z,26.00
2023-02-19T07:04:11.805Z,26.00
2023-02-19T07:06:38.559Z,26.00
2023-02-19T07:09:06.747Z,26.00
2023-02-19T07:11:35.196Z,26.00
2023-02-19T07:14:03.727Z,26.10
2023-02-19T07:16:30.446Z,26.00
2023-02-19T07:18:58.527Z,26.10
2023-02-19T07:21:25.646Z,26.10
2023-02-19T07:23:52.360Z,26.10
2023-02-19T07:26:20.304Z,26.10
2023-02-19T07:28:49.454Z,26.10
2023-02-19T07:31:18.013Z,26.10
2023-02-19T07:33:45.299Z,26.10
2023-02-19T07:36:12.461Z,26.10
2023-02-19T07:38:39.830Z,26.10
2023-02-19T07:41:07.389Z,26.10
2023-02-19T07:43:36.137Z,26.10
2023-02-19T07:46:07.401Z,26.10
2023-02-19T07:48:35.246Z,26.10
2023-02-19T07:51:03.500Z,26.10
2023-02-19T07:53:30.190Z,26.10
2023-02-19T07:56:01.903Z,26.10
2023-02-19T07:58:29.147Z,26.10
2023-02-19T08:00:55.889Z,26.10
2023-02-19T08:03:23.241Z,26.10
2023-02-19T08:05:51.383Z,26.10
2023-02-19T08:08:18.184Z,26.10
2023-02-19T08:11:03.402Z,26.10
2023-02-19T08:13:31.177Z,26.10
2023-02-19T08:16:17.073Z,26.10
2023-02-19T08:18:46.263Z,26.20
2023-02-19T08:21:13.993Z,26.20
2023-02-19T08:23:40.721Z,26.20
2023-02-19T08:26:07.545Z,26.20
2023-02-19T08:28:34.455Z,26.20
2023-02-19T08:31:04.039Z,26.20
2023-02-19T08:33:31.142Z,26.20
2023-02-19T08:36:04.497Z,26.20
2023-02-19T08:38:32.136Z,26.20
2023-02-19T08:40:58.970Z,26.20
2023-02-19T08:43:25.643Z,26.20
2023-02-19T08:45:54.391Z,26.20
2023-02-19T08:48:21.185Z,26.20
2023-02-19T08:50:57.509Z,26.30
2023-02-19T08:53:24.749Z,26.30
2023-02-19T08:55:52.426Z,26.30
2023-02-19T08:58:19.089Z,26.30
2023-02-19T09:00:45.712Z,26.30
2023-02-19T09:03:12.268Z,26.30
2023-02-19T09:05:39.641Z,26.40
2023-02-19T09:08:06.258Z,26.40
2023-02-19T09:10:32.858Z,26.40
2023-02-19T09:12:59.509Z,26.50
2023-02-19T09:15:26.185Z,26.50
2023-02-19T09:17:52.890Z,26.60
2023-02-19T09:20:19.558Z,26.70
2023-02-19T09:22:46.270Z,26.70
2023-02-19T09:25:12.952Z,26.80
2023-02-19T09:27:39.607Z,26.90
2023-02-19T09:30:06.790Z,27.10
2023-02-19T09:32:33.877Z,27.10
2023-02-19T09:35:00.494Z,27.10
2023-02-19T09:37:27.937Z,27.20
2023-02-19T09:39:55.225Z,27.30
2023-02-19T09:42:32.574Z,27.30
2023-02-19T09:45:01.260Z,27.40
2023-02-19T09:47:32.726Z,27.50
2023-02-19T09:50:05.078Z,27.60
2023-02-19T09:52:39.846Z,27.60
2023-02-19T09:55:19.939Z,27.60
2023-02-19T09:57:48.370Z,27.70
2023-02-19T10:00:27.091Z,27.70
2023-02-19T10:03:05.669Z,27.80
2023-02-19T10:05:33.897Z,27.90
2023-02-19T10:08:04.500Z,28.00
2023-02-19T10:10:35.043Z,28.10
2023-02-19T10:13:24.792Z,28.20
2023-02-19T10:15:54.643Z,28.30
2023-02-19T10:18:24.669Z,28.50
2023-02-19T10:20:52.897Z,28.50
2023-02-19T10:23:20.192Z,28.60
2023-02-19T10:25:56.995Z,28.60
2023-02-19T10:28:30.033Z,28.70
2023-02-19T10:30:59.089Z,28.70
2023-02-19T10:33:26.293Z,28.80
2023-02-19T10:35:58.818Z,28.80
2023-02-19T10:38:34.106Z,28.80
2023-02-19T10:41:07.646Z,28.90
2023-02-19T10:43:41.485Z,28.90
2023-02-19T10:46:24.152Z,28.90
2023-02-19T10:48:55.049Z,28.90
2023-02-19T10:51:30.293Z,29.00
2023-02-19T10:54:31.155Z,29.00
2023-02-19T10:57:18.952Z,29.00
2023-02-19T10:59:57.770Z,29.10
2023-02-19T11:02:25.838Z,29.10
2023-02-19T11:05:14.629Z,29.10
2023-02-19T11:07:56.248Z,29.10
2023-02-19T11:10:33.891Z,29.20
2023-02-19T11:13:03.407Z,29.20
2023-02-19T11:15:35.514Z,29.20
2023-02-19T11:18:08.405Z,29.20
2023-02-19T11:20:35.424Z,29.30
2023-02-19T11:23:14.893Z,29.30
2023-02-19T11:25:49.728Z,29.30
2023-02-19T11:28:36.973Z,29.30
2023-02-19T11:31:28.316Z,29.30
2023-02-19T11:34:29.780Z,29.30
2023-02-19T11:37:12.209Z,29.30
2023-02-19T11:39:41.021Z,29.30
2023-02-19T11:42:38.259Z,29.30
2023-02-19T11:45:50.570Z,29.30
2023-02-19T11:48:32.382Z,29.30
2023-02-19T11:51:20.069Z,29.30
2023-02-19T11:53:54.593Z,29.30
2023-02-19T11:56:33.994Z,29.40
2023-02-19T11:59:05.368Z,29.20
2023-02-19T12:02:06.418Z,29.40
2023-02-19T12:05:06.990Z,29.40
2023-02-19T12:07:51.834Z,29.40
2023-02-19T12:10:32.385Z,29.50
2023-02-19T12:13:11.302Z,29.50
2023-02-19T12:16:08.770Z,29.50
2023-02-19T12:19:06.076Z,29.60
2023-02-19T12:21:41.527Z,29.60
2023-02-19T12:24:14.245Z,29.60
2023-02-19T12:26:47.719Z,29.80
2023-02-19T12:29:35.821Z,29.70
2023-02-19T12:32:13.150Z,29.70
2023-02-19T12:35:04.234Z,29.70
2023-02-19T12:37:56.898Z,29.80
2023-02-19T12:41:02.743Z,29.90
2023-02-19T12:43:31.135Z,29.90
2023-02-19T12:45:58.145Z,30.00
2023-02-19T12:49:05.642Z,30.00
2023-02-19T12:51:38.130Z,30.00
2023-02-19T12:54:18.688Z,30.10
2023-02-19T12:57:00.446Z,30.20
2023-02-19T12:59:39.011Z,30.20
2023-02-19T13:02:30.596Z,30.20
2023-02-19T13:05:08.181Z,30.30
2023-02-19T13:07:46.727Z,30.20
2023-02-19T13:10:43.646Z,30.30
2023-02-19T13:13:19.168Z,30.30
2023-02-19T13:15:50.580Z,30.30
2023-02-19T13:18:26.219Z,30.40
2023-02-19T13:20:55.602Z,30.40
2023-02-19T13:24:00.496Z,30.40
2023-02-19T13:26:37.239Z,30.40
2023-02-19T13:29:33.378Z,30.40
2023-02-19T13:32:09.893Z,30.40
2023-02-19T13:34:58.418Z,30.50
2023-02-19T13:37:25.859Z,30.50
2023-02-19T13:39:54.530Z,30.50
2023-02-19T13:42:39.239Z,30.50
2023-02-19T13:45:06.966Z,30.50
2023-02-19T13:47:57.656Z,30.50
2023-02-19T13:50:33.041Z,30.50
2023-02-19T13:53:01.388Z,30.50
2023-02-19T13:55:47.053Z,30.50
2023-02-19T13:58:32.339Z,30.50
2023-02-19T14:01:44.028Z,30.40
2023-02-19T14:04:25.780Z,30.50
2023-02-19T14:07:04.372Z,30.50
2023-02-19T14:09:45.839Z,30.50
2023-02-19T14:12:16.274Z,30.50
2023-02-19T14:14:47.646Z,30.50
2023-02-19T14:17:27.872Z,30.50
2023-02-19T14:20:04.354Z,30.50
2023-02-19T14:22:51.871Z,30.50
2023-02-19T14:25:18.453Z,30.50
2023-02-19T14:27:45.668Z,30.50
2023-02-19T14:30:13.779Z,30.50
2023-02-19T14:32:43.593Z,30.50
2023-02-19T14:35:20.383Z,30.60
2023-02-19T14:37:48.794Z,30.50
2023-02-19T14:40:23.606Z,30.50
2023-02-19T14:42:55.399Z,30.40
2023-02-19T14:45:23.638Z,30.50
2023-02-19T14:47:52.706Z,30.50
2023-02-19T14:50:31.331Z,30.50
2023-02-19T14:53:07.536Z,30.50
2023-02-19T14:55:38.410Z,30.60
2023-02-19T14:58:08.533Z,30.50
2023-02-19T15:00:38.534Z,30.50
2023-02-19T15:03:06.604Z,30.60
2023-02-19T15:05:36.602Z,30.50
2023-02-19T15:08:15.675Z,30.60
2023-02-19T15:10:43.240Z,30.50
2023-02-19T15:13:17.301Z,30.70
2023-02-19T15:15:45.965Z,30.60
2023-02-19T15:18:20.081Z,30.60
2023-02-19T15:20:47.425Z,30.60
2023-02-19T15:23:22.698Z,30.60
2023-02-19T15:25:49.862Z,30.60
2023-02-19T15:28:25.584Z,30.60
2023-02-19T15:31:06.162Z,30.70
2023-02-19T15:33:32.873Z,30.70
2023-02-19T15:36:05.735Z,30.70
2023-02-19T15:38:35.573Z,30.70
2023-02-19T15:41:02.551Z,30.70
2023-02-19T15:43:44.613Z,30.80
2023-02-19T15:46:22.184Z,30.70
2023-02-19T15:49:08.817Z,30.70
2023-02-19T15:51:43.537Z,30.80
2023-02-19T15:54:27.555Z,30.80
2023-02-19T15:56:59.935Z,30.80
2023-02-19T15:59:36.830Z,30.80
2023-02-19T16:02:04.247Z,30.80
2023-02-19T16:04:31.025Z,30.70
2023-02-19T16:07:00.380Z,30.70
2023-02-19T16:09:36.216Z,30.80
2023-02-19T16:12:25.031Z,30.70
2023-02-19T16:14:51.682Z,30.70
2023-02-19T16:17:22.916Z,30.70
2023-02-19T16:19:54.353Z,30.70
2023-02-19T16:22:29.314Z,30.60
2023-02-19T16:24:58.628Z,30.70
2023-02-19T16:27:32.946Z,30.70
2023-02-19T16:30:08.267Z,30.60
2023-02-19T16:32:35.002Z,30.60
2023-02-19T16:35:01.842Z,30.50
2023-02-19T16:37:40.832Z,30.50
2023-02-19T16:40:07.576Z,30.50
2023-02-19T16:42:35.559Z,30.50
2023-02-19T16:45:02.515Z,30.40
2023-02-19T16:47:34.705Z,30.50
2023-02-19T16:50:04.108Z,30.40
2023-02-19T16:52:30.926Z,30.40
2023-02-19T16:54:57.660Z,30.30
2023-02-19T16:57:24.406Z,30.30
2023-02-19T16:59:51.068Z,30.30
2023-02-19T17:02:23.554Z,30.30
2023-02-19T17:04:51.819Z,30.30
2023-02-19T17:07:19.010Z,30.20
2023-02-19T17:09:45.638Z,30.20
2023-02-19T17:12:13.997Z,30.20
2023-02-19T17:14:40.761Z,30.20
2023-02-19T17:17:07.443Z,30.20
2023-02-19T17:19:34.335Z,30.20
2023-02-19T17:22:01.044Z,30.10
2023-02-19T17:24:27.647Z,30.10
2023-02-19T17:26:54.298Z,30.10
2023-02-19T17:29:20.970Z,30.10
2023-02-19T17:31:47.635Z,30.10
2023-02-19T17:34:14.266Z,30.10
2023-02-19T17:36:43.125Z,30.00
2023-02-19T17:39:15.130Z,30.00
2023-02-19T17:41:41.842Z,30.00
2023-02-19T17:44:08.507Z,30.00
2023-02-19T17:46:35.459Z,29.90
2023-02-19T17:49:02.078Z,30.00
2023-02-19T17:51:28.657Z,29.90
2023-02-19T17:53:55.364Z,29.90
2023-02-19T17:56:26.018Z,29.90
2023-02-19T17:58:53.770Z,30.00
2023-02-19T18:01:21.345Z,29.90
2023-02-19T18:03:47.982Z,30.00
2023-02-19T18:06:14.641Z,29.80
2023-02-19T18:08:51.150Z,29.80
2023-02-19T18:11:18.614Z,29.80
2023-02-19T18:13:45.913Z,29.80
2023-02-19T18:16:15.454Z,29.70
2023-02-19T18:18:42.835Z,29.70
2023-02-19T18:21:10.309Z,29.70
2023-02-19T18:23:37.453Z,29.70
2023-02-19T18:26:07.357Z,29.80
2023-02-19T18:28:34.759Z,29.70
2023-02-19T18:31:01.980Z,29.70
2023-02-19T18:33:28.690Z,29.70
2023-02-19T18:35:55.270Z,29.70
2023-02-19T18:38:22.258Z,29.70
2023-02-19T18:40:48.801Z,29.60
2023-02-19T18:43:15.361Z,29.60
2023-02-19T18:45:43.249Z,29.60
2023-02-19T18:48:09.904Z,29.60
2023-02-19T18:50:36.593Z,29.60
2023-02-19T18:53:03.402Z,29.60
2023-02-19T18:55:30.040Z,29.60
2023-02-19T18:57:56.642Z,29.60
2023-02-19T19:00:26.479Z,29.60
2023-02-19T19:02:59.883Z,29.60
2023-02-19T19:05:26.860Z,29.60
2023-02-19T19:07:55.520Z,29.50
2023-02-19T19:10:22.918Z,29.60
2023-02-19T19:12:49.684Z,29.50
2023-02-19T19:15:18.419Z,29.50
2023-02-19T19:17:45.688Z,29.50
2023-02-19T19:20:12.734Z,29.50
2023-02-19T19:22:39.626Z,29.50
2023-02-19T19:25:06.692Z,29.50
2023-02-19T19:27:33.449Z,29.50
2023-02-19T19:30:00.200Z,29.50
2023-02-19T19:32:26.958Z,29.50
2023-02-19T19:34:53.621Z,29.40
2023-02-19T19:37:20.161Z,29.40
2023-02-19T19:39:46.721Z,29.40
2023-02-19T19:42:13.374Z,29.40
2023-02-19T19:44:40.107Z,29.40
2023-02-19T19:47:06.656Z,29.30
2023-02-19T19:49:33.389Z,29.30
2023-02-19T19:52:01.023Z,29.30
2023-02-19T19:54:28.119Z,29.30
2023-02-19T19:56:54.870Z,29.20
2023-02-19T19:59:22.325Z,29.20
2023-02-19T20:01:51.209Z,29.20
2023-02-19T20:04:20.033Z,29.20
2023-02-19T20:06:46.823Z,29.10
2023-02-19T20:09:14.466Z,29.10
2023-02-19T20:11:48.909Z,29.00
2023-02-19T20:14:16.847Z,29.10
2023-02-19T20:16:44.832Z,29.00
2023-02-19T20:19:11.594Z,28.90
2023-02-19T20:21:38.222Z,28.90
2023-02-19T20:24:05.260Z,28.90
2023-02-19T20:26:32.830Z,28.80
2023-02-19T20:28:59.399Z,28.80
2023-02-19T20:31:26.478Z,28.80
2023-02-19T20:33:53.335Z,28.80
2023-02-19T20:36:20.635Z,28.70
2023-02-19T20:38:49.182Z,28.70
2023-02-19T20:41:16.013Z,28.70
2023-02-19T20:43:42.567Z,28.60
2023-02-19T20:46:09.253Z,28.60
2023-02-19T20:48:36.034Z,28.60
2023-02-19T20:51:02.968Z,28.50
2023-02-19T20:53:31.709Z,28.60
2023-02-19T20:55:58.718Z,28.50
2023-02-19T20:58:25.942Z,28.50
2023-02-19T21:00:54.142Z,28.50
2023-02-19T21:03:21.436Z,28.50
2023-02-19T21:05:48.112Z,28.40
2023-02-19T21:08:17.120Z,28.40
2023-02-19T21:10:45.442Z,28.40
2023-02-19T21:13:12.871Z,28.30
2023-02-19T21:15:39.508Z,28.30
2023-02-19T21:18:06.376Z,28.30
2023-02-19T21:20:33.190Z,28.30
2023-02-19T21:23:00.769Z,28.30
2023-02-19T21:25:27.691Z,28.20
2023-02-19T21:27:54.388Z,28.20
2023-02-19T21:30:21.069Z,28.20
2023-02-19T21:32:47.734Z,28.20
2023-02-19T21:35:14.356Z,28.20
2023-02-19T21:37:44.292Z,28.20
2023-02-19T21:40:12.131Z,28.10
2023-02-19T21:42:38.888Z,28.20
2023-02-19T21:45:05.929Z,28.10
2023-02-19T21:47:32.825Z,28.10
2023-02-19T21:49:59.381Z,28.00
2023-02-19T21:52:26.849Z,28.20
2023-02-19T21:54:53.548Z,28.10
2023-02-19T21:57:20.225Z,28.00
2023-02-19T21:59:46.757Z,28.10
2023-02-19T22:02:13.543Z,28.00
2023-02-19T22:04:40.153Z,28.00
2023-02-19T22:07:06.746Z,28.00
2023-02-19T22:09:33.401Z,28.00
2023-02-19T22:11:59.969Z,27.90
2023-02-19T22:14:26.515Z,28.00
2023-02-19T22:16:53.189Z,27.90
2023-02-19T22:19:19.929Z,27.90
2023-02-19T22:21:46.525Z,27.90
2023-02-19T22:24:19.134Z,27.80
2023-02-19T22:26:46.450Z,27.90
2023-02-19T22:29:15.086Z,27.80
2023-02-19T22:31:42.157Z,27.80
2023-02-19T22:34:09.324Z,27.80
2023-02-19T22:36:39.713Z,27.80
2023-02-19T22:39:08.774Z,27.80
2023-02-19T22:41:35.398Z,27.80
2023-02-19T22:44:02.122Z,27.80
2023-02-19T22:46:30.286Z,27.80
2023-02-19T22:48:58.082Z,27.90
2023-02-19T22:51:24.997Z,27.70
2023-02-19T22:53:54.210Z,27.70
2023-02-19T22:56:22.618Z,27.90
2023-02-19T22:58:49.316Z,27.70
2023-02-19T23:01:16.685Z,27.70
2023-02-19T23:03:46.921Z,27.70
2023-02-19T23:06:14.388Z,27.70
2023-02-19T23:08:42.306Z,27.70
2023-02-19T23:11:10.538Z,27.70
2023-02-19T23:13:37.113Z,27.60
2023-02-19T23:16:04.658Z,27.60
2023-02-19T23:18:31.350Z,27.60
2023-02-19T23:20:57.891Z,27.60
2023-02-19T23:23:24.482Z,27.60
2023-02-19T23:25:51.213Z,27.60
2023-02-19T23:28:17.782Z,27.60
2023-02-19T23:30:44.445Z,27.60
2023-02-19T23:33:11.026Z,27.60
2023-02-19T23:35:37.577Z,27.60
2023-02-19T23:38:04.293Z,27.60
2023-02-19T23:40:30.878Z,27.60
2023-02-19T23:42:57.498Z,27.70
2023-02-19T23:45:24.052Z,27.50
2023-02-19T23:47:50.598Z,27.50
2023-02-19T23:50:17.646Z,27.50
2023-02-19T23:52:44.218Z,27.50
2023-02-19T23:55:10.768Z,27.50
2023-02-19T23:57:37.374Z,27.50
